North Bend, OH

7:44 PM EST on February 27, 2015 (GMT -0500)
Miami Township | Change Station
CLOSE
Current Station
Personal Weather Station
Location: Cincinnati, OH
Elevation: 817 ft
Nearby Weather Stations

Elev 817 ft 39.14 °N, 84.70 °W | Updated 1 second ago

Clear
Clear
15.3 °F
Feels Like 15 °F
N
0.0
Wind Variable Wind from South
Gusts 0.0 mph

Today
High -- | Low -- °F
--% Chance of Precip.
Yesterday
High -- | Low -- °F
Precip. -- in
7:14 AM 6:29 PM
Waxing Gibbous, 73% visible
Pressure 30.64 in
Visibility 10.0 miles
Clouds Few 25000 ft
Windchill 15 °F
Dew Point 4 °F
Humidity 59%
Rainfall 0.02 in
Snow Depth Not available.
UV 0 out of 12
Pollen .60 out of 12
Air Quality Not available.
Flu Activity Not available.
METAR KCVG 272352Z 34007KT 10SM FEW250 M08/M17 A3059 RMK AO2 SLP375 4/003 T10781167 11044 21078 53006

More Conditions Fewer Conditions

Pressure 30.64 in
Visibility 10.0 miles
Clouds Few 25000 ft
Windchill 15 °F
Dew Point 4 °F
Humidity 59%
Rainfall 0.02 in
Snow Depth Not available.
UV 0 out of 12
Pollen .60 out of 12
Air Quality Not available.
Flu Activity Not available.
METAR KCVG 272352Z 34007KT 10SM FEW250 M08/M17 A3059 RMK AO2 SLP375 4/003 T10781167 11044 21078 53006

More Conditions Fewer Conditions

10-Day Weather Forecast

Almanac

Astronomy

Feb. 27, 2015 Rise Set
Actual Time
Civil Twilight
Nautical Twilight
Astronomical Twilight
Moon
Length of Visible Light
Length of Day
Tomorrow will be .
, % of the Moon is Illuminated

Today's Extremes

State Highs State Lows

Community

WunderPhotos

Upload Photos

1,800,910 photos uploaded!

WunderBlogs® & News

Nearby

Air Quality

  Air Quality AQ Index Pollutant
Not available.

Snow Depth

Station Depth Elevation

Earthquake Activity

City Distance Mag. Time & Date
Minimum magnitude displayed is 2.5.

Coastal Water Temperatures

Place Temperature

Nearby Weather Stations